Pribyslav, Czech Republic
Current Conditions -  °F | °C
As of 11:00 AM on Sunday 26 Oct 2014 (Local Time) from LKCV Reporting Station
Broken Clouds Broken Clouds  
Wind Chill: 48°   Ceiling: 2300
Heat Index: 48°   Visibility: 6mi
Dew Point: 45°   Wind: 3mph
Humidity: 87%   Direction: 130°SE
Pressure: 30.39"   Gusts: NA
Location:  49.58°N, 15.73°E
Report Text: LKCV 260900Z 13003KT 090V160 9999 BKN023 09/07 Q1029 NOSIG
Loading
Personal Weather Stations






























Interactive Weather Map
Tropical Storm Tracking
New forecast layout! Learn more

10-Day Weather Forecast

Advertisements
Track Severe Weather on mobile